sensor_id;sensor_type;location;lat;lon;timestamp;temperature;humidity
56729;DHT22;42612;52.232;7.560;2023-02-01T00:01:12;8.80;60.90
56729;DHT22;42612;52.232;7.560;2023-02-01T00:03:37;8.80;60.90
56729;DHT22;42612;52.232;7.560;2023-02-01T00:06:03;8.90;61.00
56729;DHT22;42612;52.232;7.560;2023-02-01T00:08:29;8.90;60.90
56729;DHT22;42612;52.232;7.560;2023-02-01T00:11:05;8.80;60.90
56729;DHT22;42612;52.232;7.560;2023-02-01T00:13:32;8.90;60.70
56729;DHT22;42612;52.232;7.560;2023-02-01T00:16:18;8.80;60.90
56729;DHT22;42612;52.232;7.560;2023-02-01T00:18:46;8.90;60.90
56729;DHT22;42612;52.232;7.560;2023-02-01T00:21:14;8.90;60.90
56729;DHT22;42612;52.232;7.560;2023-02-01T00:23:41;8.90;60.80
56729;DHT22;42612;52.232;7.560;2023-02-01T00:26:07;8.90;60.70
56729;DHT22;42612;52.232;7.560;2023-02-01T00:28:36;8.80;60.50
56729;DHT22;42612;52.232;7.560;2023-02-01T00:31:03;8.80;60.60
56729;DHT22;42612;52.232;7.560;2023-02-01T00:33:29;8.80;60.60
56729;DHT22;42612;52.232;7.560;2023-02-01T00:36:06;8.90;60.70
56729;DHT22;42612;52.232;7.560;2023-02-01T00:38:33;8.80;60.70
56729;DHT22;42612;52.232;7.560;2023-02-01T00:41:03;8.90;60.70
56729;DHT22;42612;52.232;7.560;2023-02-01T00:43:30;8.90;60.60
56729;DHT22;42612;52.232;7.560;2023-02-01T00:45:56;8.80;60.40
56729;DHT22;42612;52.232;7.560;2023-02-01T00:48:22;8.90;61.00
56729;DHT22;42612;52.232;7.560;2023-02-01T00:50:48;8.80;60.50
56729;DHT22;42612;52.232;7.560;2023-02-01T00:53:13;8.90;60.30
56729;DHT22;42612;52.232;7.560;2023-02-01T00:55:39;8.80;60.20
56729;DHT22;42612;52.232;7.560;2023-02-01T00:58:05;8.80;60.40
56729;DHT22;42612;52.232;7.560;2023-02-01T01:00:34;8.90;60.70
56729;DHT22;42612;52.232;7.560;2023-02-01T01:03:00;8.90;60.60
56729;DHT22;42612;52.232;7.560;2023-02-01T01:05:25;8.90;60.40
56729;DHT22;42612;52.232;7.560;2023-02-01T01:07:53;8.80;60.20
56729;DHT22;42612;52.232;7.560;2023-02-01T01:10:18;8.80;60.40
56729;DHT22;42612;52.232;7.560;2023-02-01T01:12:44;8.80;60.40
56729;DHT22;42612;52.232;7.560;2023-02-01T01:15:10;8.80;60.40
56729;DHT22;42612;52.232;7.560;2023-02-01T01:17:36;8.80;60.50
56729;DHT22;42612;52.232;7.560;2023-02-01T01:20:02;8.80;60.50
56729;DHT22;42612;52.232;7.560;2023-02-01T01:22:28;8.90;60.70
56729;DHT22;42612;52.232;7.560;2023-02-01T01:24:54;8.80;60.60
56729;DHT22;42612;52.232;7.560;2023-02-01T01:27:19;8.80;60.60
56729;DHT22;42612;52.232;7.560;2023-02-01T01:29:49;8.90;60.70
56729;DHT22;42612;52.232;7.560;2023-02-01T01:32:15;8.80;60.80
56729;DHT22;42612;52.232;7.560;2023-02-01T01:34:40;8.90;60.80
56729;DHT22;42612;52.232;7.560;2023-02-01T01:37:06;8.90;60.70
56729;DHT22;42612;52.232;7.560;2023-02-01T01:39:31;8.90;60.70
56729;DHT22;42612;52.232;7.560;2023-02-01T01:41:57;8.90;60.70
56729;DHT22;42612;52.232;7.560;2023-02-01T01:47:19;8.90;60.80
56729;DHT22;42612;52.232;7.560;2023-02-01T01:49:45;8.90;60.70
56729;DHT22;42612;52.232;7.560;2023-02-01T01:52:10;8.80;60.60
56729;DHT22;42612;52.232;7.560;2023-02-01T01:54:41;8.90;60.60
56729;DHT22;42612;52.232;7.560;2023-02-01T01:57:10;8.90;60.70
56729;DHT22;42612;52.232;7.560;2023-02-01T01:59:38;8.90;60.60
56729;DHT22;42612;52.232;7.560;2023-02-01T02:02:05;8.90;60.70
56729;DHT22;42612;52.232;7.560;2023-02-01T02:04:31;8.90;60.70
56729;DHT22;42612;52.232;7.560;2023-02-01T02:07:02;8.90;60.80
56729;DHT22;42612;52.232;7.560;2023-02-01T02:09:30;8.90;60.80
56729;DHT22;42612;52.232;7.560;2023-02-01T02:11:55;8.90;60.80
56729;DHT22;42612;52.232;7.560;2023-02-01T02:14:21;8.90;60.80
56729;DHT22;42612;52.232;7.560;2023-02-01T02:22:05;8.90;60.80
56729;DHT22;42612;52.232;7.560;2023-02-01T02:25:00;8.90;60.70
56729;DHT22;42612;52.232;7.560;2023-02-01T02:39:46;9.00;60.50
56729;DHT22;42612;52.232;7.560;2023-02-01T02:42:22;9.00;60.80
56729;DHT22;42612;52.232;7.560;2023-02-01T02:48:14;9.00;60.70
56729;DHT22;42612;52.232;7.560;2023-02-01T02:50:58;8.90;60.40
56729;DHT22;42612;52.232;7.560;2023-02-01T02:54:13;9.00;60.60
56729;DHT22;42612;52.232;7.560;2023-02-01T02:56:59;8.90;60.60
56729;DHT22;42612;52.232;7.560;2023-02-01T02:59:44;8.90;60.60
56729;DHT22;42612;52.232;7.560;2023-02-01T03:02:29;8.90;60.70
56729;DHT22;42612;52.232;7.560;2023-02-01T03:05:14;8.90;60.60
56729;DHT22;42612;52.232;7.560;2023-02-01T03:10:10;8.90;60.70
56729;DHT22;42612;52.232;7.560;2023-02-01T03:12:43;8.90;60.60
56729;DHT22;42612;52.232;7.560;2023-02-01T03:15:26;8.90;60.60
56729;DHT22;42612;52.232;7.560;2023-02-01T03:17:57;8.90;60.60
56729;DHT22;42612;52.232;7.560;2023-02-01T03:20:25;8.90;60.50
56729;DHT22;42612;52.232;7.560;2023-02-01T03:22:53;8.90;60.40
56729;DHT22;42612;52.232;7.560;2023-02-01T03:25:21;8.90;60.50
56729;DHT22;42612;52.232;7.560;2023-02-01T03:27:52;8.90;60.60
56729;DHT22;42612;52.232;7.560;2023-02-01T03:30:22;8.90;60.60
56729;DHT22;42612;52.232;7.560;2023-02-01T03:32:51;8.90;60.50
56729;DHT22;42612;52.232;7.560;2023-02-01T03:35:37;8.90;60.70
56729;DHT22;42612;52.232;7.560;2023-02-01T03:40:46;8.90;60.60
56729;DHT22;42612;52.232;7.560;2023-02-01T03:43:17;8.90;60.70
56729;DHT22;42612;52.232;7.560;2023-02-01T03:45:47;8.90;60.70
56729;DHT22;42612;52.232;7.560;2023-02-01T03:48:18;8.90;60.60
56729;DHT22;42612;52.232;7.560;2023-02-01T03:50:44;8.90;60.70
56729;DHT22;42612;52.232;7.560;2023-02-01T03:53:16;8.90;60.60
56729;DHT22;42612;52.232;7.560;2023-02-01T03:55:43;8.90;60.40
56729;DHT22;42612;52.232;7.560;2023-02-01T03:58:11;8.90;60.70
56729;DHT22;42612;52.232;7.560;2023-02-01T04:00:38;8.90;60.70
56729;DHT22;42612;52.232;7.560;2023-02-01T04:03:04;8.90;60.80
56729;DHT22;42612;52.232;7.560;2023-02-01T04:05:31;8.90;60.70
56729;DHT22;42612;52.232;7.560;2023-02-01T04:07:57;8.90;60.80
56729;DHT22;42612;52.232;7.560;2023-02-01T04:10:22;8.90;60.70
56729;DHT22;42612;52.232;7.560;2023-02-01T04:12:48;8.90;60.70
56729;DHT22;42612;52.232;7.560;2023-02-01T04:15:14;8.90;60.70
56729;DHT22;42612;52.232;7.560;2023-02-01T04:17:39;8.90;60.80
56729;DHT22;42612;52.232;7.560;2023-02-01T04:20:05;8.90;60.80
56729;DHT22;42612;52.232;7.560;2023-02-01T04:22:31;8.90;60.90
56729;DHT22;42612;52.232;7.560;2023-02-01T04:24:57;8.90;60.80
56729;DHT22;42612;52.232;7.560;2023-02-01T04:27:23;8.90;60.90
56729;DHT22;42612;52.232;7.560;2023-02-01T04:29:48;8.90;60.80
56729;DHT22;42612;52.232;7.560;2023-02-01T04:32:17;8.90;60.80
56729;DHT22;42612;52.232;7.560;2023-02-01T04:34:43;8.90;60.90
56729;DHT22;42612;52.232;7.560;2023-02-01T04:37:09;8.90;60.90
56729;DHT22;42612;52.232;7.560;2023-02-01T04:39:34;8.90;60.90
56729;DHT22;42612;52.232;7.560;2023-02-01T04:42:00;8.90;60.90
56729;DHT22;42612;52.232;7.560;2023-02-01T04:44:25;8.90;60.90
56729;DHT22;42612;52.232;7.560;2023-02-01T04:46:51;8.90;61.00
56729;DHT22;42612;52.232;7.560;2023-02-01T04:49:17;8.80;61.00
56729;DHT22;42612;52.232;7.560;2023-02-01T04:51:42;8.80;61.00
56729;DHT22;42612;52.232;7.560;2023-02-01T04:54:08;8.80;61.00
56729;DHT22;42612;52.232;7.560;2023-02-01T04:56:36;8.80;61.10
56729;DHT22;42612;52.232;7.560;2023-02-01T04:59:02;8.80;61.00
56729;DHT22;42612;52.232;7.560;2023-02-01T05:01:28;8.80;61.10
56729;DHT22;42612;52.232;7.560;2023-02-01T05:03:54;8.80;61.20
56729;DHT22;42612;52.232;7.560;2023-02-01T05:06:20;8.80;61.20
56729;DHT22;42612;52.232;7.560;2023-02-01T05:08:46;8.80;61.20
56729;DHT22;42612;52.232;7.560;2023-02-01T05:11:12;8.80;61.30
56729;DHT22;42612;52.232;7.560;2023-02-01T05:13:58;8.80;61.20
56729;DHT22;42612;52.232;7.560;2023-02-01T05:16:24;8.80;61.30
56729;DHT22;42612;52.232;7.560;2023-02-01T05:18:51;8.80;61.20
56729;DHT22;42612;52.232;7.560;2023-02-01T05:21:16;8.80;61.20
56729;DHT22;42612;52.232;7.560;2023-02-01T05:23:42;8.80;61.20
56729;DHT22;42612;52.232;7.560;2023-02-01T05:26:26;8.80;61.20
56729;DHT22;42612;52.232;7.560;2023-02-01T05:28:52;8.80;61.30
56729;DHT22;42612;52.232;7.560;2023-02-01T05:31:17;8.70;61.30
56729;DHT22;42612;52.232;7.560;2023-02-01T05:33:43;8.70;61.30
56729;DHT22;42612;52.232;7.560;2023-02-01T05:36:09;8.70;61.50
56729;DHT22;42612;52.232;7.560;2023-02-01T05:38:34;8.70;61.40
56729;DHT22;42612;52.232;7.560;2023-02-01T05:41:00;8.70;61.30
56729;DHT22;42612;52.232;7.560;2023-02-01T05:43:25;8.70;61.40
56729;DHT22;42612;52.232;7.560;2023-02-01T05:45:51;8.70;61.50
56729;DHT22;42612;52.232;7.560;2023-02-01T05:48:17;8.70;61.50
56729;DHT22;42612;52.232;7.560;2023-02-01T05:50:43;8.70;61.50
56729;DHT22;42612;52.232;7.560;2023-02-01T05:53:09;8.70;61.40
56729;DHT22;42612;52.232;7.560;2023-02-01T05:55:35;8.70;61.40
56729;DHT22;42612;52.232;7.560;2023-02-01T05:58:01;8.70;61.50
56729;DHT22;42612;52.232;7.560;2023-02-01T06:00:27;8.70;61.50
56729;DHT22;42612;52.232;7.560;2023-02-01T06:02:52;8.70;61.50
56729;DHT22;42612;52.232;7.560;2023-02-01T06:05:18;8.70;61.50
56729;DHT22;42612;52.232;7.560;2023-02-01T06:07:43;8.80;61.60
56729;DHT22;42612;52.232;7.560;2023-02-01T06:10:09;8.80;61.50
56729;DHT22;42612;52.232;7.560;2023-02-01T06:12:35;8.80;61.50
56729;DHT22;42612;52.232;7.560;2023-02-01T06:15:01;8.80;61.50
56729;DHT22;42612;52.232;7.560;2023-02-01T06:17:26;8.80;61.40
56729;DHT22;42612;52.232;7.560;2023-02-01T06:19:52;8.90;61.50
56729;DHT22;42612;52.232;7.560;2023-02-01T06:22:17;8.90;61.40
56729;DHT22;42612;52.232;7.560;2023-02-01T06:24:43;8.90;61.40
56729;DHT22;42612;52.232;7.560;2023-02-01T06:27:09;9.00;61.50
56729;DHT22;42612;52.232;7.560;2023-02-01T06:29:35;9.00;61.40
56729;DHT22;42612;52.232;7.560;2023-02-01T06:32:01;9.00;61.40
56729;DHT22;42612;52.232;7.560;2023-02-01T06:34:27;9.00;61.40
56729;DHT22;42612;52.232;7.560;2023-02-01T06:36:52;9.00;61.40
56729;DHT22;42612;52.232;7.560;2023-02-01T06:39:20;9.10;61.40
56729;DHT22;42612;52.232;7.560;2023-02-01T06:41:46;9.00;62.00
56729;DHT22;42612;52.232;7.560;2023-02-01T06:44:12;9.10;61.30
56729;DHT22;42612;52.232;7.560;2023-02-01T06:46:38;9.10;61.30
56729;DHT22;42612;52.232;7.560;2023-02-01T06:49:03;9.10;61.30
56729;DHT22;42612;52.232;7.560;2023-02-01T06:51:29;9.20;61.30
56729;DHT22;42612;52.232;7.560;2023-02-01T06:53:55;9.10;61.20
56729;DHT22;42612;52.232;7.560;2023-02-01T06:56:21;9.20;61.30
56729;DHT22;42612;52.232;7.560;2023-02-01T06:58:46;9.20;61.90
56729;DHT22;42612;52.232;7.560;2023-02-01T07:01:12;9.20;61.20
56729;DHT22;42612;52.232;7.560;2023-02-01T07:03:39;9.20;61.10
56729;DHT22;42612;52.232;7.560;2023-02-01T07:06:05;9.30;61.20
56729;DHT22;42612;52.232;7.560;2023-02-01T07:08:32;9.20;61.10
56729;DHT22;42612;52.232;7.560;2023-02-01T07:11:06;9.20;61.10
56729;DHT22;42612;52.232;7.560;2023-02-01T07:13:33;9.30;61.20
56729;DHT22;42612;52.232;7.560;2023-02-01T07:16:02;9.20;61.10
56729;DHT22;42612;52.232;7.560;2023-02-01T07:18:30;9.20;61.10
56729;DHT22;42612;52.232;7.560;2023-02-01T07:20:56;9.30;61.20
56729;DHT22;42612;52.232;7.560;2023-02-01T07:23:22;9.30;61.20
56729;DHT22;42612;52.232;7.560;2023-02-01T07:25:48;9.30;61.10
56729;DHT22;42612;52.232;7.560;2023-02-01T07:28:14;9.30;61.10
56729;DHT22;42612;52.232;7.560;2023-02-01T07:30:40;9.30;61.20
56729;DHT22;42612;52.232;7.560;2023-02-01T07:33:06;9.30;61.10
56729;DHT22;42612;52.232;7.560;2023-02-01T07:35:32;9.30;61.00
56729;DHT22;42612;52.232;7.560;2023-02-01T07:37:58;9.30;61.10
56729;DHT22;42612;52.232;7.560;2023-02-01T07:40:24;9.30;61.10
56729;DHT22;42612;52.232;7.560;2023-02-01T07:42:54;9.30;61.10
56729;DHT22;42612;52.232;7.560;2023-02-01T07:45:21;9.30;61.10
56729;DHT22;42612;52.232;7.560;2023-02-01T07:47:47;9.30;61.10
56729;DHT22;42612;52.232;7.560;2023-02-01T07:50:12;9.30;61.10
56729;DHT22;42612;52.232;7.560;2023-02-01T07:52:38;9.40;61.20
56729;DHT22;42612;52.232;7.560;2023-02-01T07:55:05;9.30;61.10
56729;DHT22;42612;52.232;7.560;2023-02-01T07:57:31;9.40;61.20
56729;DHT22;42612;52.232;7.560;2023-02-01T07:59:57;9.40;61.20
56729;DHT22;42612;52.232;7.560;2023-02-01T08:02:41;9.40;61.20
56729;DHT22;42612;52.232;7.560;2023-02-01T08:05:06;9.40;61.10
56729;DHT22;42612;52.232;7.560;2023-02-01T08:07:32;9.40;61.10
56729;DHT22;42612;52.232;7.560;2023-02-01T08:09:58;9.40;61.10
56729;DHT22;42612;52.232;7.560;2023-02-01T08:12:25;9.40;61.10
56729;DHT22;42612;52.232;7.560;2023-02-01T08:14:52;9.50;61.20
56729;DHT22;42612;52.232;7.560;2023-02-01T08:17:19;9.50;61.10
56729;DHT22;42612;52.232;7.560;2023-02-01T08:19:45;9.50;61.10
56729;DHT22;42612;52.232;7.560;2023-02-01T08:22:10;9.50;61.10
56729;DHT22;42612;52.232;7.560;2023-02-01T08:24:36;9.50;61.10
56729;DHT22;42612;52.232;7.560;2023-02-01T08:27:05;9.50;61.10
56729;DHT22;42612;52.232;7.560;2023-02-01T08:29:30;9.60;61.10
56729;DHT22;42612;52.232;7.560;2023-02-01T08:31:56;9.60;61.10
56729;DHT22;42612;52.232;7.560;2023-02-01T08:34:21;9.60;61.10
56729;DHT22;42612;52.232;7.560;2023-02-01T08:36:47;9.60;61.00
56729;DHT22;42612;52.232;7.560;2023-02-01T08:39:13;9.70;61.10
56729;DHT22;42612;52.232;7.560;2023-02-01T08:41:38;9.70;60.50
56729;DHT22;42612;52.232;7.560;2023-02-01T08:44:05;9.70;60.80
56729;DHT22;42612;52.232;7.560;2023-02-01T08:46:30;9.70;60.90
56729;DHT22;42612;52.232;7.560;2023-02-01T08:48:56;9.70;60.80
56729;DHT22;42612;52.232;7.560;2023-02-01T08:51:22;9.70;60.70
56729;DHT22;42612;52.232;7.560;2023-02-01T08:53:48;9.70;60.70
56729;DHT22;42612;52.232;7.560;2023-02-01T08:56:15;9.70;60.80
56729;DHT22;42612;52.232;7.560;2023-02-01T08:58:42;9.70;60.70
56729;DHT22;42612;52.232;7.560;2023-02-01T09:01:12;9.70;60.80
56729;DHT22;42612;52.232;7.560;2023-02-01T09:03:39;9.80;60.90
56729;DHT22;42612;52.232;7.560;2023-02-01T09:06:06;9.80;60.60
56729;DHT22;42612;52.232;7.560;2023-02-01T09:08:33;9.80;60.40
56729;DHT22;42612;52.232;7.560;2023-02-01T09:11:01;9.80;60.70
56729;DHT22;42612;52.232;7.560;2023-02-01T09:13:28;9.80;60.80
56729;DHT22;42612;52.232;7.560;2023-02-01T09:15:53;9.80;60.60
56729;DHT22;42612;52.232;7.560;2023-02-01T09:18:19;9.90;60.60
56729;DHT22;42612;52.232;7.560;2023-02-01T09:20:45;9.90;60.40
56729;DHT22;42612;52.232;7.560;2023-02-01T09:23:10;9.90;60.60
56729;DHT22;42612;52.232;7.560;2023-02-01T09:25:36;9.90;60.10
56729;DHT22;42612;52.232;7.560;2023-02-01T09:28:03;9.90;60.60
56729;DHT22;42612;52.232;7.560;2023-02-01T09:30:34;9.90;60.60
56729;DHT22;42612;52.232;7.560;2023-02-01T09:33:01;9.90;60.70
56729;DHT22;42612;52.232;7.560;2023-02-01T09:35:27;9.90;60.80
56729;DHT22;42612;52.232;7.560;2023-02-01T09:37:53;9.90;60.60
56729;DHT22;42612;52.232;7.560;2023-02-01T09:40:19;9.90;60.50
56729;DHT22;42612;52.232;7.560;2023-02-01T09:43:05;9.90;60.80
56729;DHT22;42612;52.232;7.560;2023-02-01T09:45:51;10.00;60.50
56729;DHT22;42612;52.232;7.560;2023-02-01T09:48:41;10.00;60.40
56729;DHT22;42612;52.232;7.560;2023-02-01T09:51:12;9.90;60.50
56729;DHT22;42612;52.232;7.560;2023-02-01T09:53:41;9.90;60.30
56729;DHT22;42612;52.232;7.560;2023-02-01T09:56:13;10.00;60.30
56729;DHT22;42612;52.232;7.560;2023-02-01T10:01:26;10.00;60.50
56729;DHT22;42612;52.232;7.560;2023-02-01T10:03:55;10.00;60.60
56729;DHT22;42612;52.232;7.560;2023-02-01T10:14:20;10.00;60.40
56729;DHT22;42612;52.232;7.560;2023-02-01T10:22:40;10.00;60.40
56729;DHT22;42612;52.232;7.560;2023-02-01T10:27:52;10.00;60.50
56729;DHT22;42612;52.232;7.560;2023-02-01T10:30:19;10.00;60.30
56729;DHT22;42612;52.232;7.560;2023-02-01T10:32:47;10.00;60.40
56729;DHT22;42612;52.232;7.560;2023-02-01T10:35:16;10.00;60.50
56729;DHT22;42612;52.232;7.560;2023-02-01T10:37:44;10.10;60.60
56729;DHT22;42612;52.232;7.560;2023-02-01T10:42:43;10.10;60.50
56729;DHT22;42612;52.232;7.560;2023-02-01T10:45:28;10.10;60.50
56729;DHT22;42612;52.232;7.560;2023-02-01T10:47:55;10.10;60.50
56729;DHT22;42612;52.232;7.560;2023-02-01T10:53:17;10.10;60.50
56729;DHT22;42612;52.232;7.560;2023-02-01T10:55:46;10.10;61.20
56729;DHT22;42612;52.232;7.560;2023-02-01T10:58:20;10.10;60.40
56729;DHT22;42612;52.232;7.560;2023-02-01T11:06:21;10.10;60.50
56729;DHT22;42612;52.232;7.560;2023-02-01T11:08:52;10.10;60.40
56729;DHT22;42612;52.232;7.560;2023-02-01T11:11:19;10.10;60.50
56729;DHT22;42612;52.232;7.560;2023-02-01T11:13:45;10.10;60.50
56729;DHT22;42612;52.232;7.560;2023-02-01T11:16:17;10.10;60.40
56729;DHT22;42612;52.232;7.560;2023-02-01T11:18:43;10.10;60.50
56729;DHT22;42612;52.232;7.560;2023-02-01T11:21:09;10.10;60.50
56729;DHT22;42612;52.232;7.560;2023-02-01T11:23:40;10.00;60.50
56729;DHT22;42612;52.232;7.560;2023-02-01T11:26:09;10.00;60.50
56729;DHT22;42612;52.232;7.560;2023-02-01T11:28:37;9.90;60.50
56729;DHT22;42612;52.232;7.560;2023-02-01T11:31:05;9.90;60.60
56729;DHT22;42612;52.232;7.560;2023-02-01T11:33:35;9.80;60.70
56729;DHT22;42612;52.232;7.560;2023-02-01T11:36:09;9.80;60.70
56729;DHT22;42612;52.232;7.560;2023-02-01T11:38:37;9.70;60.60
56729;DHT22;42612;52.232;7.560;2023-02-01T11:41:13;9.70;60.70
56729;DHT22;42612;52.232;7.560;2023-02-01T11:46:18;9.70;61.00
56729;DHT22;42612;52.232;7.560;2023-02-01T11:49:40;9.60;61.20
56729;DHT22;42612;52.232;7.560;2023-02-01T11:52:03;9.60;61.20
56729;DHT22;42612;52.232;7.560;2023-02-01T12:05:53;9.40;61.30
56729;DHT22;42612;52.232;7.560;2023-02-01T12:14:32;9.40;61.70
56729;DHT22;42612;52.232;7.560;2023-02-01T12:17:38;9.30;61.90
56729;DHT22;42612;52.232;7.560;2023-02-01T12:33:58;9.30;62.60
56729;DHT22;42612;52.232;7.560;2023-02-01T12:36:39;9.30;62.60
56729;DHT22;42612;52.232;7.560;2023-02-01T12:39:15;9.30;62.10
56729;DHT22;42612;52.232;7.560;2023-02-01T12:44:31;9.40;62.30
56729;DHT22;42612;52.232;7.560;2023-02-01T12:47:03;9.40;62.40
56729;DHT22;42612;52.232;7.560;2023-02-01T12:49:53;9.40;62.40
56729;DHT22;42612;52.232;7.560;2023-02-01T12:52:27;9.40;62.50
56729;DHT22;42612;52.232;7.560;2023-02-01T12:57:39;9.50;62.60
56729;DHT22;42612;52.232;7.560;2023-02-01T13:00:18;9.50;64.00
56729;DHT22;42612;52.232;7.560;2023-02-01T13:02:59;9.50;62.60
56729;DHT22;42612;52.232;7.560;2023-02-01T13:05:34;9.50;62.70
56729;DHT22;42612;52.232;7.560;2023-02-01T13:08:10;9.60;62.80
56729;DHT22;42612;52.232;7.560;2023-02-01T13:10:39;9.50;62.60
56729;DHT22;42612;52.232;7.560;2023-02-01T13:13:16;9.60;63.00
56729;DHT22;42612;52.232;7.560;2023-02-01T13:15:54;9.60;62.70
56729;DHT22;42612;52.232;7.560;2023-02-01T13:18:23;9.70;62.70
56729;DHT22;42612;52.232;7.560;2023-02-01T13:21:08;9.60;62.80
56729;DHT22;42612;52.232;7.560;2023-02-01T13:23:38;9.70;62.60
56729;DHT22;42612;52.232;7.560;2023-02-01T13:26:05;9.70;62.60
56729;DHT22;42612;52.232;7.560;2023-02-01T13:28:36;9.70;62.60
56729;DHT22;42612;52.232;7.560;2023-02-01T13:41:54;9.70;62.80
56729;DHT22;42612;52.232;7.560;2023-02-01T13:44:26;9.60;63.00
56729;DHT22;42612;52.232;7.560;2023-02-01T13:46:56;9.60;62.80
56729;DHT22;42612;52.232;7.560;2023-02-01T13:49:27;9.60;63.00
56729;DHT22;42612;52.232;7.560;2023-02-01T13:51:55;9.60;63.00
56729;DHT22;42612;52.232;7.560;2023-02-01T13:54:26;9.70;63.10
56729;DHT22;42612;52.232;7.560;2023-02-01T13:56:54;9.60;62.80
56729;DHT22;42612;52.232;7.560;2023-02-01T14:05:02;9.70;62.70
56729;DHT22;42612;52.232;7.560;2023-02-01T14:07:28;9.60;62.70
56729;DHT22;42612;52.232;7.560;2023-02-01T14:09:53;9.60;62.70
56729;DHT22;42612;52.232;7.560;2023-02-01T14:15:19;9.60;62.80
56729;DHT22;42612;52.232;7.560;2023-02-01T14:17:49;9.60;62.70
56729;DHT22;42612;52.232;7.560;2023-02-01T14:23:16;9.60;62.90
56729;DHT22;42612;52.232;7.560;2023-02-01T14:25:44;9.60;62.80
56729;DHT22;42612;52.232;7.560;2023-02-01T14:28:11;9.60;62.70
56729;DHT22;42612;52.232;7.560;2023-02-01T14:30:38;9.50;62.70
56729;DHT22;42612;52.232;7.560;2023-02-01T14:33:18;9.50;62.70
56729;DHT22;42612;52.232;7.560;2023-02-01T14:35:54;9.50;62.60
56729;DHT22;42612;52.232;7.560;2023-02-01T14:38:25;9.50;62.70
56729;DHT22;42612;52.232;7.560;2023-02-01T14:40:51;9.40;62.70
56729;DHT22;42612;52.232;7.560;2023-02-01T14:43:16;9.40;62.80
56729;DHT22;42612;52.232;7.560;2023-02-01T14:45:46;9.40;63.00
56729;DHT22;42612;52.232;7.560;2023-02-01T14:50:47;9.40;63.00
56729;DHT22;42612;52.232;7.560;2023-02-01T14:55:42;9.40;63.10
56729;DHT22;42612;52.232;7.560;2023-02-01T14:58:14;9.40;63.20
56729;DHT22;42612;52.232;7.560;2023-02-01T15:01:01;9.50;63.20
56729;DHT22;42612;52.232;7.560;2023-02-01T15:06:25;9.50;63.10
56729;DHT22;42612;52.232;7.560;2023-02-01T15:14:20;9.60;63.40
56729;DHT22;42612;52.232;7.560;2023-02-01T15:16:46;9.60;63.40
56729;DHT22;42612;52.232;7.560;2023-02-01T15:19:19;9.60;63.30
56729;DHT22;42612;52.232;7.560;2023-02-01T15:21:51;9.70;63.40
56729;DHT22;42612;52.232;7.560;2023-02-01T15:24:23;9.70;63.40
56729;DHT22;42612;52.232;7.560;2023-02-01T15:26:51;9.70;63.40
56729;DHT22;42612;52.232;7.560;2023-02-01T15:29:18;9.70;63.30
56729;DHT22;42612;52.232;7.560;2023-02-01T15:31:46;9.80;63.20
56729;DHT22;42612;52.232;7.560;2023-02-01T15:34:13;9.80;63.10
56729;DHT22;42612;52.232;7.560;2023-02-01T15:36:40;9.80;63.30
56729;DHT22;42612;52.232;7.560;2023-02-01T15:39:23;9.80;63.10
56729;DHT22;42612;52.232;7.560;2023-02-01T15:41:54;9.80;63.20
56729;DHT22;42612;52.232;7.560;2023-02-01T15:44:28;9.80;63.00
56729;DHT22;42612;52.232;7.560;2023-02-01T15:46:54;9.80;63.10
56729;DHT22;42612;52.232;7.560;2023-02-01T15:49:27;9.80;63.00
56729;DHT22;42612;52.232;7.560;2023-02-01T15:51:54;9.80;63.00
56729;DHT22;42612;52.232;7.560;2023-02-01T15:54:25;9.80;63.10
56729;DHT22;42612;52.232;7.560;2023-02-01T15:56:54;9.80;63.10
56729;DHT22;42612;52.232;7.560;2023-02-01T15:59:21;9.80;63.10
56729;DHT22;42612;52.232;7.560;2023-02-01T16:01:49;9.80;63.10
56729;DHT22;42612;52.232;7.560;2023-02-01T16:06:51;9.80;63.10
56729;DHT22;42612;52.232;7.560;2023-02-01T16:09:39;9.80;63.00
56729;DHT22;42612;52.232;7.560;2023-02-01T16:12:45;9.80;63.00
56729;DHT22;42612;52.232;7.560;2023-02-01T16:15:03;9.80;63.10
56729;DHT22;42612;52.232;7.560;2023-02-01T16:17:30;9.80;62.90
56729;DHT22;42612;52.232;7.560;2023-02-01T16:19:56;9.80;62.80
56729;DHT22;42612;52.232;7.560;2023-02-01T16:22:23;9.80;62.80
56729;DHT22;42612;52.232;7.560;2023-02-01T16:24:49;9.80;62.90
56729;DHT22;42612;52.232;7.560;2023-02-01T16:27:15;9.80;62.90
56729;DHT22;42612;52.232;7.560;2023-02-01T16:29:40;9.80;62.80
56729;DHT22;42612;52.232;7.560;2023-02-01T16:32:06;9.80;62.80
56729;DHT22;42612;52.232;7.560;2023-02-01T16:34:33;9.80;62.90
56729;DHT22;42612;52.232;7.560;2023-02-01T16:37:01;9.70;62.80
56729;DHT22;42612;52.232;7.560;2023-02-01T16:39:28;9.80;62.80
56729;DHT22;42612;52.232;7.560;2023-02-01T16:41:55;9.70;62.90
56729;DHT22;42612;52.232;7.560;2023-02-01T16:44:20;9.70;62.90
56729;DHT22;42612;52.232;7.560;2023-02-01T16:46:46;9.70;62.80
56729;DHT22;42612;52.232;7.560;2023-02-01T16:49:16;9.70;62.70
56729;DHT22;42612;52.232;7.560;2023-02-01T16:51:43;9.80;62.80
56729;DHT22;42612;52.232;7.560;2023-02-01T16:54:09;9.70;62.90
56729;DHT22;42612;52.232;7.560;2023-02-01T16:56:35;9.80;62.80
56729;DHT22;42612;52.232;7.560;2023-02-01T16:59:02;9.80;62.80
56729;DHT22;42612;52.232;7.560;2023-02-01T17:01:28;9.70;62.80
56729;DHT22;42612;52.232;7.560;2023-02-01T17:03:53;9.80;62.80
56729;DHT22;42612;52.232;7.560;2023-02-01T17:06:20;9.80;62.80
56729;DHT22;42612;52.232;7.560;2023-02-01T17:08:49;9.80;62.80
56729;DHT22;42612;52.232;7.560;2023-02-01T17:11:17;9.80;62.70
56729;DHT22;42612;52.232;7.560;2023-02-01T17:13:42;9.80;62.70
56729;DHT22;42612;52.232;7.560;2023-02-01T17:16:25;9.80;62.70
56729;DHT22;42612;52.232;7.560;2023-02-01T17:18:53;9.80;62.70
56729;DHT22;42612;52.232;7.560;2023-02-01T17:21:21;9.80;62.70
56729;DHT22;42612;52.232;7.560;2023-02-01T17:23:47;9.80;62.80
56729;DHT22;42612;52.232;7.560;2023-02-01T17:26:12;9.90;62.70
56729;DHT22;42612;52.232;7.560;2023-02-01T17:28:38;9.90;62.70
56729;DHT22;42612;52.232;7.560;2023-02-01T17:31:03;9.80;62.70
56729;DHT22;42612;52.232;7.560;2023-02-01T17:33:30;9.90;62.70
56729;DHT22;42612;52.232;7.560;2023-02-01T17:35:58;9.90;62.70
56729;DHT22;42612;52.232;7.560;2023-02-01T17:38:24;9.90;62.70
56729;DHT22;42612;52.232;7.560;2023-02-01T17:40:50;9.90;62.60
56729;DHT22;42612;52.232;7.560;2023-02-01T17:43:20;9.90;62.60
56729;DHT22;42612;52.232;7.560;2023-02-01T17:45:51;10.00;62.60
56729;DHT22;42612;52.232;7.560;2023-02-01T17:48:19;9.90;62.50
56729;DHT22;42612;52.232;7.560;2023-02-01T17:50:45;10.00;62.50
56729;DHT22;42612;52.232;7.560;2023-02-01T17:53:14;10.00;62.50
56729;DHT22;42612;52.232;7.560;2023-02-01T17:55:42;10.00;62.50
56729;DHT22;42612;52.232;7.560;2023-02-01T17:58:10;10.00;62.50
56729;DHT22;42612;52.232;7.560;2023-02-01T18:00:37;9.90;62.50
56729;DHT22;42612;52.232;7.560;2023-02-01T18:03:03;10.00;62.50
56729;DHT22;42612;52.232;7.560;2023-02-01T18:05:32;10.00;62.50
56729;DHT22;42612;52.232;7.560;2023-02-01T18:08:21;10.00;62.40
56729;DHT22;42612;52.232;7.560;2023-02-01T18:10:51;10.00;62.40
56729;DHT22;42612;52.232;7.560;2023-02-01T18:13:19;10.00;62.40